Time;durP1;ratioP1;P1;durP2;ratioP2;P2;SDS_P1;SDS_P2;PMS_P1;PMS_P2;Temp;Humidity;BMP_temperature;BMP_pressure;BME280_temperature;BME280_humidity;BME280_pressure;Samples;Min_cycle;Max_cycle;Signal;HPM_P1;HPM_P2
2023/03/05 00:00:16;;;;;;;0.10;0.10;;;5.80;99.90;;;;;;5053601;28;20366;-71
2023/03/05 00:02:41;;;;;;;0.30;0.30;;;5.70;99.90;;;;;;5053412;28;20033;-71
2023/03/05 00:05:08;;;;;;;0.80;0.80;;;5.70;99.90;;;;;;5052357;28;20025;-72
2023/03/05 00:07:34;;;;;;;0.40;0.40;;;5.70;99.90;;;;;;5053634;28;20457;-71
2023/03/05 00:10:02;;;;;;;0.47;0.30;;;5.70;99.90;;;;;;5053680;28;20032;-71
2023/03/05 00:12:28;;;;;;;0.77;0.77;;;5.50;99.90;;;;;;5053240;28;20041;-71
2023/03/05 00:14:54;;;;;;;0.50;0.50;;;5.40;99.90;;;;;;5053572;28;20025;-71
2023/03/05 00:17:20;;;;;;;1.80;1.70;;;5.40;99.90;;;;;;5053661;28;20044;-71
2023/03/05 00:19:45;;;;;;;0.63;0.63;;;5.40;99.90;;;;;;5053206;28;20057;-71
2023/03/05 00:22:11;;;;;;;0.30;0.30;;;5.40;99.90;;;;;;5053249;28;20021;-72
2023/03/05 00:24:37;;;;;;;1.85;1.50;;;5.40;99.90;;;;;;5053253;28;20021;-71
2023/03/05 00:27:03;;;;;;;0.30;0.30;;;5.30;99.90;;;;;;5053513;28;20351;-71
2023/03/05 00:29:29;;;;;;;0.50;0.50;;;5.30;99.90;;;;;;5034982;28;20021;-70
2023/03/05 00:31:54;;;;;;;0.20;0.17;;;5.20;99.90;;;;;;5053174;28;20415;-71
2023/03/05 00:34:21;;;;;;;1.00;0.98;;;5.40;99.90;;;;;;5053180;28;20037;-71
2023/03/05 00:36:51;;;;;;;1.70;1.60;;;5.30;99.90;;;;;;5053097;28;20025;-71
2023/03/05 00:39:18;;;;;;;0.10;0.10;;;5.20;99.90;;;;;;5051860;28;20381;-72
2023/03/05 00:41:44;;;;;;;0.30;0.30;;;5.30;99.90;;;;;;5053018;28;20037;-71
2023/03/05 00:44:11;;;;;;;0.20;0.20;;;5.30;99.90;;;;;;5052929;28;20029;-72
2023/03/05 00:46:37;;;;;;;1.38;1.27;;;5.20;99.90;;;;;;5052931;28;20491;-71
2023/03/05 00:49:03;;;;;;;0.15;0.15;;;5.30;99.90;;;;;;5053001;28;20365;-71
2023/03/05 00:51:29;;;;;;;8.57;1.27;;;5.20;99.90;;;;;;5052830;28;20040;-71
2023/03/05 00:53:55;;;;;;;0.52;0.52;;;5.10;99.90;;;;;;5051489;28;20037;-70
2023/03/05 00:56:21;;;;;;;1.73;1.55;;;5.00;99.90;;;;;;5051783;28;20025;-71
2023/03/05 00:58:47;;;;;;;0.20;0.20;;;5.00;99.90;;;;;;5052386;28;20029;-71
2023/03/05 01:01:13;;;;;;;0.20;0.20;;;5.10;99.90;;;;;;5051747;28;20128;-71
2023/03/05 01:03:39;;;;;;;0.10;0.10;;;5.00;99.90;;;;;;5051186;28;20433;-71
2023/03/05 01:06:08;;;;;;;0.10;0.10;;;5.10;99.90;;;;;;5052715;28;20063;-71
2023/03/05 01:08:34;;;;;;;1.52;1.42;;;5.10;99.90;;;;;;5051147;28;20500;-71
2023/03/05 01:11:00;;;;;;;2.83;1.20;;;5.10;99.90;;;;;;5052589;28;20033;-71
2023/03/05 01:13:26;;;;;;;0.10;0.10;;;5.00;99.90;;;;;;5051109;28;20083;-71
2023/03/05 01:15:52;;;;;;;0.63;0.63;;;4.90;99.90;;;;;;5052600;28;20033;-71
2023/03/05 01:18:18;;;;;;;0.30;0.30;;;4.80;99.90;;;;;;5052351;28;20090;-71
2023/03/05 01:20:44;;;;;;;0.43;0.43;;;4.80;99.90;;;;;;5052390;28;20060;-71
2023/03/05 01:23:10;;;;;;;0.10;0.10;;;4.70;99.90;;;;;;5051313;28;20056;-71
2023/03/05 01:25:37;;;;;;;0.10;0.10;;;4.60;99.90;;;;;;5052508;28;20490;-71
2023/03/05 01:28:03;;;;;;;0.10;0.10;;;4.70;99.90;;;;;;5084676;28;20025;-71
2023/03/05 01:30:29;;;;;;;1.42;0.82;;;4.60;99.90;;;;;;5052392;28;20017;-71
2023/03/05 01:32:55;;;;;;;0.10;0.10;;;4.60;99.90;;;;;;5052286;28;20041;-71
2023/03/05 01:35:23;;;;;;;0.10;0.10;;;4.50;99.90;;;;;;5052799;28;20111;-71
2023/03/05 01:37:49;;;;;;;0.88;0.88;;;4.50;99.90;;;;;;5049298;28;20177;-71
2023/03/05 01:40:18;;;;;;;0.10;0.10;;;4.50;99.90;;;;;;5051157;28;20496;-74
2023/03/05 01:42:54;;;;;;;0.10;0.10;;;4.50;99.90;;;;;;5052097;28;20028;-73
2023/03/05 01:45:19;;;;;;;0.52;0.40;;;4.70;99.90;;;;;;5051975;28;20025;-73
2023/03/05 01:47:45;;;;;;;0.10;0.10;;;4.70;99.90;;;;;;5051002;28;20028;-71
2023/03/05 01:50:21;;;;;;;0.10;0.10;;;4.70;99.90;;;;;;5051123;28;20036;-73
2023/03/05 01:52:59;;;;;;;0.20;0.20;;;4.80;99.90;;;;;;5050822;28;20048;-71
2023/03/05 01:55:29;;;;;;;0.20;0.20;;;4.70;99.90;;;;;;5050875;28;20078;-71
2023/03/05 01:58:04;;;;;;;0.20;0.20;;;4.60;99.90;;;;;;5050834;28;20091;-72
2023/03/05 02:00:36;;;;;;;0.10;0.10;;;4.80;99.90;;;;;;5050964;28;20021;-71
2023/03/05 02:03:05;;;;;;;0.10;0.10;;;4.70;99.90;;;;;;5052239;28;20097;-71
2023/03/05 02:05:34;;;;;;;0.10;0.10;;;4.90;99.90;;;;;;5038728;28;20397;-71
2023/03/05 02:08:03;;;;;;;0.30;0.30;;;4.80;99.90;;;;;;5052237;28;20030;-71
2023/03/05 02:10:32;;;;;;;0.10;0.10;;;5.20;99.90;;;;;;5051754;28;20036;-71
2023/03/05 02:13:02;;;;;;;0.20;0.20;;;5.00;99.90;;;;;;5050720;28;20033;-71
2023/03/05 02:15:29;;;;;;;0.10;0.10;;;4.90;99.90;;;;;;5050556;28;20023;-72
2023/03/05 02:17:55;;;;;;;1.88;0.55;;;4.70;99.90;;;;;;5050899;28;20462;-72
2023/03/05 02:20:24;;;;;;;1.92;1.85;;;4.60;99.90;;;;;;5050505;28;20068;-71
2023/03/05 02:22:50;;;;;;;0.20;0.20;;;4.70;99.90;;;;;;5052062;28;20481;-72
2023/03/05 02:25:17;;;;;;;0.17;0.17;;;5.00;99.90;;;;;;5051623;28;20056;-71
2023/03/05 02:28:09;;;;;;;0.10;0.10;;;5.00;99.90;;;;;;5053568;28;20021;-71
2023/03/05 02:30:34;;;;;;;0.10;0.10;;;5.10;99.90;;;;;;5052343;28;20045;-71
2023/03/05 02:33:01;;;;;;;0.20;0.20;;;5.10;99.90;;;;;;5054447;28;20025;-72
2023/03/05 02:35:27;;;;;;;1.65;0.55;;;5.10;99.90;;;;;;5054072;28;20032;-72
2023/03/05 02:37:53;;;;;;;0.20;0.20;;;4.90;99.90;;;;;;5055494;28;20557;-72
2023/03/05 02:40:18;;;;;;;0.20;0.20;;;4.70;99.90;;;;;;5054004;28;20373;-71
2023/03/05 02:42:45;;;;;;;0.70;0.50;;;4.50;99.90;;;;;;5054001;28;20036;-72
2023/03/05 02:45:12;;;;;;;0.20;0.20;;;4.40;99.90;;;;;;5054260;28;20469;-71
2023/03/05 02:47:40;;;;;;;0.10;0.10;;;4.30;99.90;;;;;;5055502;28;20535;-71
2023/03/05 02:50:09;;;;;;;0.10;0.10;;;4.30;99.90;;;;;;5054281;28;20021;-70
2023/03/05 02:52:35;;;;;;;1.65;1.45;;;4.30;99.90;;;;;;5053663;28;20037;-71
2023/03/05 02:55:04;;;;;;;0.40;0.40;;;4.20;99.90;;;;;;5062867;28;20017;-71
2023/03/05 02:57:30;;;;;;;1.63;1.20;;;4.20;99.90;;;;;;5041053;28;20057;-71
2023/03/05 02:59:55;;;;;;;0.73;0.73;;;4.10;99.90;;;;;;5066029;28;20060;-71
2023/03/05 03:02:21;;;;;;;2.03;1.42;;;4.10;99.90;;;;;;5045564;28;20033;-72
2023/03/05 03:04:47;;;;;;;0.50;0.50;;;4.20;99.90;;;;;;5053572;28;20032;-72
2023/03/05 03:07:14;;;;;;;0.25;0.25;;;4.10;99.90;;;;;;5055150;28;20436;-71
2023/03/05 03:09:41;;;;;;;2.53;1.23;;;4.10;99.90;;;;;;5054577;28;20071;-71
2023/03/05 03:12:09;;;;;;;2.90;1.67;;;4.20;99.90;;;;;;5053556;28;20025;-71
2023/03/05 03:14:38;;;;;;;0.70;0.70;;;4.10;99.90;;;;;;5054689;28;20049;-71
2023/03/05 03:17:15;;;;;;;1.55;1.45;;;4.10;99.90;;;;;;5053330;28;20017;-72
2023/03/05 03:19:41;;;;;;;3.17;1.67;;;4.00;99.90;;;;;;5054870;28;20037;-71
2023/03/05 03:22:08;;;;;;;2.05;1.13;;;3.90;99.90;;;;;;5054327;28;20044;-71
2023/03/05 03:24:35;;;;;;;2.83;1.88;;;3.90;99.90;;;;;;5054511;28;20112;-71
2023/03/05 03:27:02;;;;;;;1.95;1.65;;;3.90;99.90;;;;;;5054383;28;20029;-70
2023/03/05 03:29:28;;;;;;;2.50;1.95;;;3.90;99.90;;;;;;5054577;28;20388;-71
2023/03/05 03:31:54;;;;;;;1.85;1.20;;;3.80;99.90;;;;;;5052822;28;20374;-71
2023/03/05 03:34:19;;;;;;;4.22;1.63;;;3.90;99.90;;;;;;5054473;28;20131;-72
2023/03/05 03:36:47;;;;;;;4.03;1.65;;;3.90;99.90;;;;;;5054181;28;20037;-71
2023/03/05 03:39:13;;;;;;;1.48;1.38;;;3.80;99.90;;;;;;5039457;28;20025;-70
2023/03/05 03:41:45;;;;;;;5.93;2.60;;;3.90;99.90;;;;;;5054195;28;20082;-71
2023/03/05 03:44:11;;;;;;;0.97;0.97;;;3.80;99.90;;;;;;5053009;28;20028;-72
2023/03/05 03:46:38;;;;;;;2.17;1.73;;;3.90;99.90;;;;;;5054160;28;20781;-73
2023/03/05 03:49:05;;;;;;;1.10;1.08;;;3.80;99.90;;;;;;5054187;28;20126;-72
2023/03/05 03:51:31;;;;;;;2.50;1.27;;;3.90;99.90;;;;;;5053998;28;20385;-71
2023/03/05 03:53:58;;;;;;;3.67;2.55;;;3.90;99.90;;;;;;5053691;28;20037;-74
2023/03/05 03:56:24;;;;;;;4.03;1.77;;;3.90;99.90;;;;;;5053875;28;20039;-73
2023/03/05 03:58:51;;;;;;;4.60;1.42;;;3.90;99.90;;;;;;5053912;28;20036;-73
2023/03/05 04:01:21;;;;;;;5.53;2.92;;;3.90;99.90;;;;;;5052649;28;20028;-73
2023/03/05 04:03:47;;;;;;;4.90;1.27;;;3.90;99.90;;;;;;5053817;28;20435;-74
2023/03/05 04:06:13;;;;;;;6.47;4.25;;;3.90;99.90;;;;;;5052542;28;20017;-74
2023/03/05 04:08:39;;;;;;;12.80;3.53;;;3.90;99.90;;;;;;5053520;28;20094;-73
2023/03/05 04:11:05;;;;;;;7.97;4.15;;;3.90;99.90;;;;;;5053696;28;20021;-74
2023/03/05 04:13:31;;;;;;;0.90;0.90;;;3.90;99.90;;;;;;5053739;28;20035;-72
2023/03/05 04:15:57;;;;;;;5.13;0.93;;;4.00;99.90;;;;;;5053584;28;20151;-72
2023/03/05 04:18:23;;;;;;;0.90;0.90;;;4.00;99.90;;;;;;5053295;28;20048;-72
2023/03/05 04:20:49;;;;;;;5.78;3.10;;;4.00;99.90;;;;;;5052951;28;20029;-72
2023/03/05 04:23:15;;;;;;;0.82;0.82;;;4.10;99.90;;;;;;5052949;28;20041;-73
2023/03/05 04:25:41;;;;;;;0.90;0.90;;;4.10;99.90;;;;;;5052185;28;20554;-74
2023/03/05 04:28:10;;;;;;;2.53;0.93;;;4.10;99.90;;;;;;5038800;28;20017;-74
2023/03/05 04:30:36;;;;;;;0.60;0.60;;;4.00;99.90;;;;;;5038738;28;20024;-73
2023/03/05 04:33:02;;;;;;;0.85;0.85;;;4.10;99.90;;;;;;5051838;28;20405;-73
2023/03/05 04:35:27;;;;;;;1.08;0.82;;;4.10;99.90;;;;;;5037805;28;20021;-72
2023/03/05 04:37:53;;;;;;;0.75;0.75;;;4.10;99.90;;;;;;5053141;28;20469;-74
2023/03/05 04:40:19;;;;;;;4.22;2.10;;;4.10;99.90;;;;;;5052712;28;20029;-72
2023/03/05 04:42:45;;;;;;;4.70;1.95;;;4.00;99.90;;;;;;5051875;28;20122;-72
2023/03/05 04:45:11;;;;;;;1.00;0.90;;;4.00;99.90;;;;;;5051777;28;20028;-73
2023/03/05 04:47:37;;;;;;;2.20;1.42;;;4.00;99.90;;;;;;5052861;28;20376;-73
2023/03/05 04:50:04;;;;;;;1.60;0.70;;;4.00;99.90;;;;;;5044985;28;20035;-73
2023/03/05 04:52:30;;;;;;;3.38;2.22;;;4.00;99.90;;;;;;5031755;28;20041;-72
2023/03/05 04:54:56;;;;;;;2.40;1.23;;;4.00;99.90;;;;;;5046766;28;20091;-73
2023/03/05 04:57:22;;;;;;;0.98;0.95;;;4.10;99.90;;;;;;5033139;28;20055;-72
2023/03/05 04:59:48;;;;;;;0.75;0.40;;;4.00;99.90;;;;;;5049471;28;20013;-72
2023/03/05 05:02:13;;;;;;;1.92;1.50;;;4.10;99.90;;;;;;5052609;28;20033;-72
2023/03/05 05:04:43;;;;;;;3.92;1.50;;;4.10;99.90;;;;;;5051342;28;20078;-73
2023/03/05 05:07:10;;;;;;;1.25;0.98;;;4.10;99.90;;;;;;5052926;28;20040;-73
2023/03/05 05:09:37;;;;;;;1.95;1.65;;;4.10;99.90;;;;;;5052437;28;20036;-73
2023/03/05 05:12:03;;;;;;;3.63;1.70;;;4.20;99.90;;;;;;5052439;28;20166;-72
2023/03/05 05:14:28;;;;;;;1.00;1.00;;;4.20;99.90;;;;;;5052603;28;20107;-75
2023/03/05 05:16:54;;;;;;;1.40;0.80;;;4.10;99.90;;;;;;5034793;28;20047;-73
2023/03/05 05:19:20;;;;;;;1.08;0.68;;;4.10;99.90;;;;;;5051168;28;20044;-72
2023/03/05 05:21:46;;;;;;;6.22;1.95;;;4.20;99.90;;;;;;5052331;28;20021;-72
2023/03/05 05:24:11;;;;;;;0.52;0.52;;;4.20;99.90;;;;;;5052343;28;20061;-73
2023/03/05 05:26:37;;;;;;;7.97;2.42;;;4.20;99.90;;;;;;5052550;28;20036;-73
2023/03/05 05:29:03;;;;;;;2.95;2.20;;;4.20;99.90;;;;;;5052596;28;20088;-72
2023/03/05 05:31:29;;;;;;;1.83;1.73;;;4.10;99.90;;;;;;5052362;28;20033;-72
2023/03/05 05:33:54;;;;;;;1.88;1.13;;;4.20;99.90;;;;;;5052008;28;20035;-72
2023/03/05 05:36:21;;;;;;;1.10;1.02;;;4.30;99.90;;;;;;5052535;28;20487;-72
2023/03/05 05:38:47;;;;;;;4.80;2.22;;;4.30;99.90;;;;;;5052244;28;20032;-72
2023/03/05 05:41:16;;;;;;;0.98;0.90;;;4.20;99.90;;;;;;5052268;28;20052;-71
2023/03/05 05:43:42;;;;;;;1.02;0.95;;;4.30;99.90;;;;;;5052379;28;20035;-72
2023/03/05 05:46:12;;;;;;;0.52;0.52;;;4.20;99.90;;;;;;5051083;28;20021;-71
2023/03/05 05:48:38;;;;;;;1.45;1.35;;;4.20;99.90;;;;;;5052252;28;20045;-72
2023/03/05 05:51:09;;;;;;;0.63;0.50;;;4.10;99.90;;;;;;5050804;28;20045;-72
2023/03/05 05:53:35;;;;;;;2.17;1.23;;;4.10;99.90;;;;;;5052209;28;20091;-72
2023/03/05 05:56:03;;;;;;;0.80;0.75;;;4.10;99.90;;;;;;5052246;28;20067;-73
2023/03/05 05:58:29;;;;;;;0.60;0.47;;;4.20;99.90;;;;;;5051089;28;20041;-72
2023/03/05 06:00:55;;;;;;;1.20;0.60;;;4.20;99.90;;;;;;5051181;28;20115;-72
2023/03/05 06:03:21;;;;;;;1.33;0.80;;;4.10;99.90;;;;;;5054659;28;20051;-72
2023/03/05 06:05:46;;;;;;;0.30;0.30;;;4.10;99.90;;;;;;5056008;28;20037;-71
2023/03/05 06:08:12;;;;;;;0.35;0.35;;;4.10;99.90;;;;;;5055848;28;20113;-71
2023/03/05 06:10:38;;;;;;;0.10;0.10;;;4.20;99.90;;;;;;5055995;28;20025;-72
2023/03/05 06:13:04;;;;;;;15.90;4.70;;;4.30;99.90;;;;;;5055896;28;20037;-71
2023/03/05 06:15:30;;;;;;;0.57;0.57;;;4.20;99.90;;;;;;5055792;28;20090;-72
2023/03/05 06:17:58;;;;;;;1.38;0.85;;;4.20;99.90;;;;;;5055710;28;20115;-71
2023/03/05 06:20:23;;;;;;;2.65;2.40;;;4.20;99.90;;;;;;5054945;28;20048;-71
2023/03/05 06:22:49;;;;;;;2.85;1.17;;;4.00;99.90;;;;;;5055287;28;20466;-71
2023/03/05 06:25:15;;;;;;;1.10;1.10;;;4.00;99.90;;;;;;5054227;28;20076;-71
2023/03/05 06:27:41;;;;;;;7.40;3.13;;;3.90;99.90;;;;;;5055827;28;20029;-72
2023/03/05 06:30:09;;;;;;;3.10;1.70;;;3.80;99.90;;;;;;5055493;28;20029;-72
2023/03/05 06:32:35;;;;;;;0.10;0.10;;;3.80;99.90;;;;;;5055269;28;20045;-71
2023/03/05 06:35:00;;;;;;;0.57;0.57;;;3.70;99.90;;;;;;5055718;28;20370;-71
2023/03/05 06:37:26;;;;;;;0.30;0.30;;;3.80;99.90;;;;;;5055370;28;20059;-72
2023/03/05 06:39:52;;;;;;;0.93;0.90;;;3.70;99.90;;;;;;5055393;28;20044;-71
2023/03/05 06:42:18;;;;;;;3.88;2.30;;;3.70;99.90;;;;;;5055140;28;20033;-71
2023/03/05 06:44:44;;;;;;;5.72;1.20;;;3.70;99.90;;;;;;5087850;28;20028;-71
2023/03/05 06:47:10;;;;;;;8.75;4.05;;;3.80;99.90;;;;;;5055314;28;20531;-73
2023/03/05 06:49:37;;;;;;;1.98;1.73;;;3.80;99.90;;;;;;5055442;28;20021;-73
2023/03/05 06:52:04;;;;;;;0.30;0.30;;;3.80;99.90;;;;;;5054943;28;20049;-72
2023/03/05 06:54:30;;;;;;;5.88;3.88;;;3.80;99.90;;;;;;5055155;28;20028;-75
2023/03/05 06:56:56;;;;;;;1.85;1.42;;;3.80;99.90;;;;;;5055263;28;20099;-73
2023/03/05 06:59:22;;;;;;;3.47;3.13;;;3.90;99.90;;;;;;5054893;28;20036;-73
2023/03/05 07:01:48;;;;;;;1.33;1.13;;;3.90;99.90;;;;;;5054691;28;20021;-73
2023/03/05 07:04:14;;;;;;;5.35;1.92;;;3.90;99.90;;;;;;5054647;28;20040;-71
2023/03/05 07:06:41;;;;;;;3.00;1.30;;;4.00;99.90;;;;;;5054854;28;20025;-72
2023/03/05 07:09:09;;;;;;;1.02;1.02;;;4.00;99.90;;;;;;5055229;28;20041;-72
2023/03/05 07:11:35;;;;;;;0.65;0.65;;;4.10;99.90;;;;;;5053361;28;20505;-74
2023/03/05 07:14:02;;;;;;;0.17;0.17;;;4.20;99.90;;;;;;5087010;28;20099;-72
2023/03/05 07:16:30;;;;;;;0.20;0.20;;;4.20;99.90;;;;;;5054060;28;20024;-74
2023/03/05 07:18:57;;;;;;;0.10;0.10;;;4.30;99.90;;;;;;5046576;28;20108;-75
2023/03/05 07:21:27;;;;;;;0.35;0.35;;;4.40;99.90;;;;;;5056239;28;20040;-73
2023/03/05 07:23:54;;;;;;;0.98;0.93;;;4.50;99.90;;;;;;5055043;28;20029;-74
2023/03/05 07:26:21;;;;;;;2.00;1.73;;;4.50;99.90;;;;;;5061142;28;20112;-73
2023/03/05 07:28:47;;;;;;;2.10;1.23;;;4.40;99.90;;;;;;5056028;28;20019;-74
2023/03/05 07:31:17;;;;;;;2.20;1.80;;;4.30;99.90;;;;;;5028629;28;20109;-74
2023/03/05 07:33:44;;;;;;;2.92;2.47;;;4.40;99.90;;;;;;5053379;28;20036;-74
2023/03/05 07:36:10;;;;;;;1.17;1.08;;;4.30;99.90;;;;;;5062536;28;20032;-73
2023/03/05 07:38:36;;;;;;;6.32;3.70;;;4.30;99.90;;;;;;5060949;28;20082;-74
2023/03/05 07:41:11;;;;;;;3.20;2.85;;;4.30;99.90;;;;;;5054334;28;20017;-73
2023/03/05 07:43:36;;;;;;;0.15;0.15;;;4.30;99.90;;;;;;5085750;28;20025;-74
2023/03/05 07:46:11;;;;;;;0.77;0.77;;;4.40;99.90;;;;;;5052548;28;20025;-73
2023/03/05 07:48:37;;;;;;;1.30;1.20;;;4.50;99.90;;;;;;5049005;28;20028;-74
2023/03/05 07:51:06;;;;;;;0.20;0.20;;;4.60;99.90;;;;;;5051559;28;20470;-74
2023/03/05 07:53:31;;;;;;;1.20;1.10;;;4.50;99.90;;;;;;5060268;28;20038;-74
2023/03/05 07:55:57;;;;;;;1.23;0.98;;;4.40;99.90;;;;;;5048682;28;20417;-73
2023/03/05 07:58:23;;;;;;;0.88;0.85;;;4.30;99.90;;;;;;5052532;28;20526;-73
2023/03/05 08:00:49;;;;;;;1.92;1.73;;;4.40;99.90;;;;;;5052995;28;20021;-73
2023/03/05 08:03:15;;;;;;;1.50;0.50;;;4.30;99.90;;;;;;5052733;28;20057;-74
2023/03/05 08:05:41;;;;;;;2.92;1.27;;;4.30;99.90;;;;;;5052881;28;20021;-74
2023/03/05 08:08:07;;;;;;;0.80;0.80;;;4.40;99.90;;;;;;5052821;28;20067;-74
2023/03/05 08:10:34;;;;;;;0.30;0.30;;;4.40;99.90;;;;;;5052663;28;20021;-73
2023/03/05 08:13:00;;;;;;;0.20;0.20;;;4.30;99.90;;;;;;5052234;28;20033;-74
2023/03/05 08:15:25;;;;;;;0.10;0.10;;;4.40;99.90;;;;;;5057566;28;20032;-74
2023/03/05 08:17:51;;;;;;;0.65;0.65;;;4.50;99.90;;;;;;5047191;28;20024;-74
2023/03/05 08:20:18;;;;;;;0.10;0.10;;;4.50;99.90;;;;;;5060320;28;20111;-74
2023/03/05 08:22:44;;;;;;;4.80;2.25;;;4.50;99.90;;;;;;5050882;28;20029;-76
2023/03/05 08:25:10;;;;;;;0.17;0.17;;;4.70;99.90;;;;;;5051559;28;20416;-74
2023/03/05 08:27:41;;;;;;;0.28;0.28;;;4.70;99.90;;;;;;5053894;28;20430;-75
2023/03/05 08:30:11;;;;;;;0.38;0.38;;;5.00;99.90;;;;;;5054585;28;20036;-75
2023/03/05 08:32:37;;;;;;;0.80;0.73;;;5.10;99.90;;;;;;5066848;28;20396;-75
2023/03/05 08:35:04;;;;;;;0.60;0.60;;;5.10;99.90;;;;;;5061781;28;20029;-74
2023/03/05 08:37:30;;;;;;;1.45;1.08;;;5.10;99.90;;;;;;5050327;28;20388;-77
2023/03/05 08:39:56;;;;;;;0.17;0.17;;;5.30;99.90;;;;;;5036201;28;20084;-73
2023/03/05 08:42:23;;;;;;;0.50;0.50;;;5.40;99.90;;;;;;5054755;28;20060;-73
2023/03/05 08:44:48;;;;;;;6.18;0.57;;;5.20;99.90;;;;;;5054608;28;20032;-74
2023/03/05 08:47:15;;;;;;;0.10;0.10;;;5.20;99.90;;;;;;5053924;28;20041;-74
2023/03/05 08:49:40;;;;;;;0.40;0.40;;;5.40;99.90;;;;;;5053604;28;20032;-76
2023/03/05 08:52:06;;;;;;;0.20;0.20;;;5.50;99.90;;;;;;5041406;28;20022;-73
2023/03/05 08:54:33;;;;;;;1.08;0.55;;;5.40;99.90;;;;;;5037616;28;20071;-74
2023/03/05 08:56:59;;;;;;;0.35;0.35;;;5.50;99.90;;;;;;5035905;28;20078;-74
2023/03/05 08:59:25;;;;;;;1.33;1.05;;;5.50;99.90;;;;;;5037800;28;20033;-74
2023/03/05 09:01:50;;;;;;;0.73;0.73;;;5.40;99.90;;;;;;5038292;28;20021;-74
2023/03/05 09:04:16;;;;;;;0.15;0.15;;;5.50;99.90;;;;;;5035617;28;20037;-75
2023/03/05 09:06:42;;;;;;;1.05;1.00;;;5.70;99.90;;;;;;5039728;28;20022;-74
2023/03/05 09:09:08;;;;;;;0.60;0.47;;;5.50;99.90;;;;;;5034363;28;20390;-75
2023/03/05 09:11:35;;;;;;;0.77;0.68;;;5.30;99.90;;;;;;5040308;28;20044;-75
2023/03/05 09:14:05;;;;;;;1.65;1.25;;;5.50;99.90;;;;;;5052661;28;20021;-74
2023/03/05 09:16:30;;;;;;;1.02;0.88;;;5.40;99.90;;;;;;5051581;28;20068;-73
2023/03/05 09:18:57;;;;;;;0.10;0.10;;;5.50;99.90;;;;;;5050229;28;20102;-73
2023/03/05 09:21:23;;;;;;;6.22;0.63;;;5.50;99.90;;;;;;5053045;28;20071;-73
2023/03/05 09:23:49;;;;;;;0.38;0.38;;;5.60;99.90;;;;;;5051711;28;20530;-73
2023/03/05 09:26:17;;;;;;;1.10;0.90;;;5.50;99.90;;;;;;5052468;28;20017;-72
2023/03/05 09:28:44;;;;;;;1.38;1.13;;;5.60;99.90;;;;;;5051514;28;20393;-73
2023/03/05 09:31:10;;;;;;;1.75;0.90;;;5.50;99.90;;;;;;5051453;28;20023;-73
2023/03/05 09:33:37;;;;;;;3.78;1.42;;;5.60;99.90;;;;;;5052999;28;20025;-72
2023/03/05 09:36:05;;;;;;;0.30;0.30;;;5.80;99.90;;;;;;5053106;28;20469;-73
2023/03/05 09:38:31;;;;;;;0.25;0.25;;;6.00;99.90;;;;;;5053116;28;20146;-74
2023/03/05 09:41:14;;;;;;;0.38;0.38;;;6.30;99.90;;;;;;5053623;28;20025;-73
2023/03/05 09:44:04;;;;;;;1.55;1.38;;;6.00;99.90;;;;;;5045179;28;20033;-72
2023/03/05 09:46:47;;;;;;;0.85;0.85;;;5.80;99.90;;;;;;5043873;28;20500;-72
2023/03/05 09:49:19;;;;;;;1.02;0.93;;;5.80;99.90;;;;;;5051149;28;20033;-72
2023/03/05 09:51:49;;;;;;;0.30;0.30;;;5.80;99.90;;;;;;5070469;28;20037;-72
2023/03/05 09:54:27;;;;;;;0.10;0.10;;;6.10;99.90;;;;;;5055408;28;20068;-72
2023/03/05 09:56:56;;;;;;;0.17;0.17;;;6.20;99.90;;;;;;5052197;28;20033;-72
2023/03/05 09:59:46;;;;;;;1.70;0.77;;;6.30;99.90;;;;;;5054327;28;20620;-73
2023/03/05 10:02:34;;;;;;;0.45;0.45;;;6.30;99.90;;;;;;5052803;28;20067;-72
2023/03/05 10:05:08;;;;;;;0.10;0.10;;;6.20;99.90;;;;;;5036998;28;20039;-73
2023/03/05 10:07:40;;;;;;;2.10;0.40;;;6.30;99.90;;;;;;5055450;28;20104;-73
2023/03/05 10:10:21;;;;;;;1.08;0.68;;;6.50;99.90;;;;;;5054569;28;20036;-73
2023/03/05 10:13:12;;;;;;;0.10;0.10;;;6.50;99.90;;;;;;5054580;28;20480;-72
2023/03/05 10:16:28;;;;;;;0.15;0.15;;;6.70;99.90;;;;;;5056805;28;20044;-72
2023/03/05 10:18:56;;;;;;;0.25;0.25;;;6.80;99.90;;;;;;5050079;28;20032;-72
2023/03/05 10:25:32;;;;;;;0.20;0.20;;;6.90;99.90;;;;;;5047635;28;20033;-72
2023/03/05 10:28:16;;;;;;;0.52;0.52;;;6.90;99.90;;;;;;5050319;28;20032;-72
2023/03/05 10:31:03;;;;;;;0.10;0.10;;;6.90;99.90;;;;;;5051862;28;20035;-75
2023/03/05 10:33:45;;;;;;;8.38;1.38;;;7.20;99.90;;;;;;5053795;28;20041;-73
2023/03/05 10:36:17;;;;;;;;;;;7.20;99.90;;;;;;5053862;28;20094;-72
2023/03/05 10:38:46;;;;;;;0.15;0.15;;;7.00;99.90;;;;;;5053262;28;20392;-72
2023/03/05 10:41:48;;;;;;;2.08;0.73;;;7.20;99.90;;;;;;5051849;28;20029;-73
2023/03/05 10:44:20;;;;;;;0.35;0.35;;;7.30;99.90;;;;;;5049519;28;20405;-73
2023/03/05 10:46:47;;;;;;;0.38;0.38;;;7.10;99.90;;;;;;5056429;28;20017;-73
2023/03/05 10:49:18;;;;;;;0.50;0.50;;;7.30;99.90;;;;;;5049671;28;20036;-73
2023/03/05 10:51:52;;;;;;;3.80;1.00;;;7.50;99.90;;;;;;5052754;28;20036;-73
2023/03/05 10:54:32;;;;;;;0.55;0.50;;;7.40;99.90;;;;;;5054801;28;20088;-73
2023/03/05 10:57:17;;;;;;;0.10;0.10;;;7.60;99.90;;;;;;5053531;28;20477;-73
2023/03/05 11:00:23;;;;;;;0.17;0.17;;;8.10;99.90;;;;;;5055568;28;20036;-74
2023/03/05 11:03:08;;;;;;;0.50;0.50;;;8.50;99.90;;;;;;5010069;28;20049;-74
2023/03/05 11:05:37;;;;;;;0.10;0.10;;;8.30;99.90;;;;;;5010547;28;20061;-74
2023/03/05 11:08:23;;;;;;;0.20;0.20;;;8.20;99.90;;;;;;5036699;28;20041;-73
2023/03/05 11:11:03;;;;;;;0.22;0.22;;;8.30;99.90;;;;;;5054800;28;20499;-74
2023/03/05 11:13:29;;;;;;;0.68;0.32;;;8.50;99.90;;;;;;5057402;28;20045;-74
2023/03/05 11:16:00;;;;;;;1.08;0.50;;;8.00;99.90;;;;;;5053419;28;20025;-73
2023/03/05 11:18:30;;;;;;;0.20;0.20;;;7.90;99.90;;;;;;5054868;28;20031;-74
2023/03/05 11:21:08;;;;;;;0.40;0.40;;;7.70;99.90;;;;;;5053633;28;20401;-73
2023/03/05 11:23:34;;;;;;;1.20;0.80;;;7.60;99.90;;;;;;5054849;28;20036;-73
2023/03/05 11:26:04;;;;;;;0.10;0.10;;;6.80;99.90;;;;;;5054558;28;20013;-73
2023/03/05 11:28:50;;;;;;;0.20;0.20;;;6.40;99.90;;;;;;5054289;28;20116;-72
2023/03/05 11:31:17;;;;;;;0.50;0.50;;;6.20;99.90;;;;;;5053716;28;20519;-73
2023/03/05 11:34:17;;;;;;;0.20;0.20;;;6.00;99.90;;;;;;5054785;28;20115;-73
2023/03/05 11:37:02;;;;;;;0.10;0.10;;;5.70;99.90;;;;;;5053472;28;21039;-73
2023/03/05 11:39:31;;;;;;;0.17;0.17;;;5.60;99.90;;;;;;5053287;28;20504;-74
2023/03/05 11:42:08;;;;;;;0.55;0.55;;;5.70;99.90;;;;;;5053328;28;20033;-73
2023/03/05 11:44:43;;;;;;;0.10;0.10;;;6.10;99.90;;;;;;5051884;28;20029;-74
2023/03/05 11:47:30;;;;;;;5.10;0.75;;;6.30;99.90;;;;;;5053524;28;20051;-74
2023/03/05 11:50:14;;;;;;;0.10;0.10;;;6.40;99.90;;;;;;5053979;28;20111;-74
2023/03/05 11:52:46;;;;;;;0.20;0.20;;;6.70;99.90;;;;;;5055778;28;20474;-74
2023/03/05 11:55:23;;;;;;;0.52;0.52;;;6.60;99.90;;;;;;5055527;28;20043;-74
2023/03/05 11:58:22;;;;;;;0.10;0.10;;;6.60;99.90;;;;;;5054756;28;20493;-74
2023/03/05 12:00:49;;;;;;;0.10;0.10;;;6.90;99.90;;;;;;5053004;28;20110;-74
2023/03/05 12:03:21;;;;;;;0.10;0.10;;;7.20;99.90;;;;;;5057776;28;20031;-74
2023/03/05 12:05:52;;;;;;;0.20;0.20;;;7.80;99.90;;;;;;5060510;28;20017;-75
2023/03/05 12:08:24;;;;;;;0.10;0.10;;;7.90;99.90;;;;;;5053731;28;20033;-75
2023/03/05 12:10:51;;;;;;;0.10;0.10;;;7.80;99.90;;;;;;5046668;28;20028;-74
2023/03/05 12:13:30;;;;;;;0.32;0.32;;;7.60;99.90;;;;;;5051900;28;20045;-74
2023/03/05 12:16:10;;;;;;;0.43;0.40;;;7.70;99.90;;;;;;5047388;28;20063;-74
2023/03/05 12:19:07;;;;;;;1.35;0.75;;;7.40;99.90;;;;;;5051202;28;20025;-74
2023/03/05 12:21:39;;;;;;;0.52;0.30;;;7.90;99.90;;;;;;5031996;28;20380;-74
2023/03/05 12:24:23;;;;;;;0.13;0.13;;;8.40;99.90;;;;;;5054396;28;20069;-75
2023/03/05 12:27:02;;;;;;;0.10;0.10;;;8.80;99.90;;;;;;5056655;28;20027;-74
2023/03/05 12:29:53;;;;;;;0.10;0.10;;;8.40;99.90;;;;;;5050373;28;20037;-75
2023/03/05 12:32:21;;;;;;;0.32;0.32;;;7.90;99.90;;;;;;5053087;28;20115;-75
2023/03/05 12:34:54;;;;;;;0.43;0.43;;;7.50;99.90;;;;;;5052819;28;20033;-75
2023/03/05 12:37:20;;;;;;;1.25;0.50;;;7.50;99.90;;;;;;5051959;28;20098;-74
2023/03/05 12:39:56;;;;;;;0.20;0.20;;;7.30;99.90;;;;;;5052521;28;20079;-79
2023/03/05 12:42:28;;;;;;;0.28;0.28;;;7.20;99.90;;;;;;5050936;28;20397;-74
2023/03/05 12:45:09;;;;;;;0.20;0.20;;;7.20;99.90;;;;;;5053223;28;20354;-74
2023/03/05 12:47:35;;;;;;;0.10;0.10;;;6.90;99.90;;;;;;5052939;28;20166;-77
2023/03/05 12:50:02;;;;;;;0.10;0.10;;;6.90;99.90;;;;;;5052862;28;20032;-74
2023/03/05 12:52:33;;;;;;;0.10;0.10;;;7.00;99.90;;;;;;5051337;28;20037;-74
2023/03/05 12:55:16;;;;;;;0.20;0.20;;;7.20;99.90;;;;;;5051967;28;20036;-73
2023/03/05 12:57:47;;;;;;;0.10;0.10;;;7.00;99.90;;;;;;5052993;28;20538;-74
2023/03/05 13:00:27;;;;;;;0.10;0.10;;;6.90;99.90;;;;;;5052853;28;20029;-74
2023/03/05 13:02:57;;;;;;;1.35;0.73;;;7.10;99.90;;;;;;5051730;28;20056;-74
2023/03/05 13:05:23;;;;;;;0.10;0.10;;;7.40;99.90;;;;;;5052594;28;20036;-74
2023/03/05 13:07:50;;;;;;;0.15;0.15;;;7.20;99.90;;;;;;5052792;28;20033;-73
2023/03/05 13:10:28;;;;;;;0.20;0.20;;;7.20;99.90;;;;;;5038551;28;20032;-74
2023/03/05 13:12:57;;;;;;;0.38;0.38;;;7.30;99.90;;;;;;5051455;28;20044;-74